createdAt,value
2019-04-11T00:00:39.586Z,14.17
2019-04-11T00:03:09.192Z,12.73
2019-04-11T00:05:39.130Z,14.20
2019-04-11T00:08:08.533Z,14.43
2019-04-11T00:10:38.182Z,12.53
2019-04-11T00:13:17.292Z,15.27
2019-04-11T00:15:40.357Z,13.37
2019-04-11T00:18:10.413Z,13.30
2019-04-11T00:20:40.298Z,16.17
2019-04-11T00:23:10.129Z,14.80
2019-04-11T00:25:39.960Z,14.03
2019-04-11T00:28:09.918Z,12.90
2019-04-11T00:30:39.998Z,15.00
2019-04-11T00:33:09.859Z,13.30
2019-04-11T00:35:39.880Z,12.97
2019-04-11T00:38:09.850Z,13.23
2019-04-11T00:40:39.537Z,14.63
2019-04-11T00:43:09.541Z,13.70
2019-04-11T00:45:40.011Z,13.67
2019-04-11T00:48:09.438Z,14.47
2019-04-11T00:50:39.149Z,15.53
2019-04-11T00:53:09.779Z,15.17
2019-04-11T00:55:39.849Z,15.03
2019-04-11T00:58:09.626Z,14.47
2019-04-11T01:00:39.826Z,15.13
2019-04-11T01:03:09.717Z,16.80
2019-04-11T01:05:39.496Z,15.77
2019-04-11T01:08:08.731Z,15.13
2019-04-11T01:10:39.385Z,16.00
2019-04-11T01:13:09.227Z,17.23
2019-04-11T01:15:42.750Z,16.57
2019-04-11T01:18:11.990Z,14.33
2019-04-11T01:20:41.904Z,17.73
2019-04-11T01:23:11.221Z,15.10
2019-04-11T01:25:41.064Z,12.27
2019-04-11T01:28:10.806Z,13.73
2019-04-11T01:30:54.036Z,12.03
2019-04-11T01:33:24.115Z,14.90
2019-04-11T01:35:53.426Z,13.73
2019-04-11T01:38:24.212Z,14.43
2019-04-11T01:40:54.368Z,15.73
2019-04-11T01:43:24.233Z,13.53
2019-04-11T01:45:53.777Z,13.43
2019-04-11T01:48:27.924Z,13.63
2019-04-11T01:50:57.217Z,13.13
2019-04-11T01:53:26.853Z,13.93
2019-04-11T01:55:56.897Z,12.97
2019-04-11T01:58:26.768Z,13.93
2019-04-11T02:01:18.837Z,14.23
2019-04-11T02:04:16.044Z,15.03
2019-04-11T02:06:45.893Z,14.93
2019-04-11T02:09:15.923Z,15.07
2019-04-11T02:11:45.746Z,14.20
2019-04-11T02:14:16.969Z,15.27
2019-04-11T02:16:47.319Z,13.77
2019-04-11T02:19:16.615Z,15.10
2019-04-11T02:21:46.268Z,13.17
2019-04-11T02:24:34.570Z,13.07
2019-04-11T02:27:11.740Z,13.97
2019-04-11T02:29:41.090Z,13.20
2019-04-11T02:32:12.197Z,14.67
2019-04-11T02:34:41.543Z,12.13
2019-04-11T02:37:13.353Z,14.10
2019-04-11T02:39:43.356Z,14.97
2019-04-11T02:42:14.759Z,15.30
2019-04-11T02:44:59.553Z,12.90
2019-04-11T02:47:22.397Z,14.73
2019-04-11T02:49:47.691Z,16.10
2019-04-11T02:52:19.458Z,12.93
2019-04-11T02:54:50.278Z,14.90
2019-04-11T02:57:21.582Z,14.07
2019-04-11T02:59:53.697Z,20.20
2019-04-11T03:02:23.930Z,13.73
2019-04-11T03:04:55.629Z,12.87
2019-04-11T03:07:25.758Z,13.93
2019-04-11T03:09:56.457Z,12.73
2019-04-11T03:12:27.576Z,12.60
2019-04-11T03:15:14.368Z,14.67
2019-04-11T03:17:34.240Z,13.57
2019-04-11T03:20:13.307Z,12.23
2019-04-11T03:22:32.161Z,16.20
2019-04-11T03:25:03.155Z,12.47
2019-04-11T03:27:34.945Z,16.57
2019-04-11T03:30:10.089Z,11.97
2019-04-11T03:35:59.661Z,13.80
2019-04-11T03:37:58.609Z,14.03
2019-04-11T03:40:27.088Z,18.47
2019-04-11T03:42:57.066Z,12.73
2019-04-11T03:45:34.769Z,13.50
2019-04-11T03:47:59.501Z,12.73
2019-04-11T03:50:18.782Z,16.23
2019-04-11T03:52:45.163Z,13.93
2019-04-11T03:55:15.660Z,13.87
2019-04-11T03:57:46.839Z,12.77
2019-04-11T04:00:16.111Z,13.70
2019-04-11T04:02:46.739Z,14.57
2019-04-11T04:05:17.620Z,15.53
2019-04-11T04:07:48.893Z,14.23
2019-04-11T04:10:20.446Z,11.97
2019-04-11T04:12:51.466Z,14.03
2019-04-11T04:15:54.109Z,12.50
2019-04-11T04:18:21.369Z,16.87
2019-04-11T04:21:01.723Z,15.87
2019-04-11T04:23:38.262Z,16.13
2019-04-11T04:26:10.554Z,14.97
2019-04-11T04:28:40.835Z,18.33
2019-04-11T04:31:11.515Z,18.97
2019-04-11T04:33:42.830Z,15.30
2019-04-11T04:36:15.377Z,14.50
2019-04-11T04:38:46.507Z,14.30
2019-04-11T04:41:29.542Z,13.53
2019-04-11T04:43:48.290Z,13.17
2019-04-11T04:46:38.200Z,14.07
2019-04-11T04:48:51.046Z,17.00
2019-04-11T04:51:20.744Z,13.27
2019-04-11T04:53:52.011Z,19.67
2019-04-11T04:56:25.961Z,15.27
2019-04-11T04:58:54.043Z,12.70
2019-04-11T05:01:23.836Z,12.90
2019-04-11T05:03:54.170Z,15.73
2019-04-11T05:06:24.154Z,23.93
2019-04-11T05:08:53.760Z,14.07
2019-04-11T05:11:23.289Z,15.40
2019-04-11T05:13:52.573Z,13.83
2019-04-11T05:16:21.833Z,14.73
2019-04-11T05:18:51.092Z,13.87
2019-04-11T05:21:21.272Z,14.50
2019-04-11T05:23:50.615Z,14.30
2019-04-11T05:26:21.448Z,14.07
2019-04-11T05:28:51.050Z,17.90
2019-04-11T05:31:20.650Z,15.10
2019-04-11T05:33:49.986Z,15.10
2019-04-11T05:36:20.585Z,12.63
2019-04-11T05:38:50.575Z,15.63
2019-04-11T05:41:21.408Z,14.00
2019-04-11T05:43:51.492Z,14.60
2019-04-11T05:46:31.143Z,18.10
2019-04-11T05:49:03.873Z,15.27
2019-04-11T05:51:39.966Z,14.60
2019-04-11T05:54:07.356Z,15.53
2019-04-11T05:56:35.819Z,15.27
2019-04-11T05:59:14.782Z,17.90
2019-04-11T06:01:48.809Z,12.33
2019-04-11T06:04:26.869Z,14.97
2019-04-11T06:07:00.022Z,14.90
2019-04-11T06:09:34.807Z,18.07
2019-04-11T06:12:13.878Z,13.20
2019-04-11T06:14:58.102Z,17.73
2019-04-11T06:17:27.639Z,14.30
2019-04-11T06:20:14.813Z,14.27
2019-04-11T06:22:50.284Z,16.77
2019-04-11T06:25:44.532Z,13.73
2019-04-11T06:28:31.485Z,14.77
2019-04-11T06:31:26.316Z,13.90
2019-04-11T06:33:59.447Z,14.47
2019-04-11T06:36:52.949Z,15.13
2019-04-11T06:40:00.767Z,13.00
2019-04-11T06:42:39.822Z,12.80
2019-04-11T06:45:27.286Z,12.17
2019-04-11T06:48:31.762Z,15.07
2019-04-11T06:51:08.295Z,11.73
2019-04-11T06:53:40.642Z,12.47
2019-04-11T06:56:27.355Z,14.57
2019-04-11T06:59:03.979Z,12.87
2019-04-11T07:01:34.217Z,10.63
2019-04-11T07:04:11.412Z,15.40
2019-04-11T07:06:43.730Z,13.43
2019-04-11T07:09:37.173Z,14.17
2019-04-11T07:12:10.474Z,12.87
2019-04-11T07:14:53.010Z,12.97
2019-04-11T07:17:40.446Z,12.83
2019-04-11T07:20:29.299Z,13.63
2019-04-11T07:23:17.610Z,13.47
2019-04-11T07:26:00.390Z,12.63
2019-04-11T07:28:52.287Z,12.33
2019-04-11T07:31:58.722Z,12.90
2019-04-11T07:34:50.182Z,12.80
2019-04-11T07:37:38.731Z,12.63
2019-04-11T07:40:30.870Z,13.20
2019-04-11T07:43:19.049Z,12.67
2019-04-11T07:46:24.998Z,11.53
2019-04-11T07:49:06.125Z,11.03
2019-04-11T08:26:07.206Z,9.30
2019-04-11T08:37:38.438Z,11.77
2019-04-11T09:23:25.905Z,13.53
2019-04-11T09:26:23.597Z,9.67
2019-04-11T10:37:42.187Z,8.83
2019-04-11T10:41:12.490Z,9.33
2019-04-11T10:43:57.347Z,10.97
2019-04-11T11:06:21.852Z,10.43
2019-04-11T11:11:24.677Z,8.90
2019-04-11T11:14:12.345Z,9.30
2019-04-11T11:16:48.645Z,8.87
2019-04-11T11:19:59.707Z,8.70
2019-04-11T11:22:33.805Z,8.67
2019-04-11T11:25:35.399Z,8.30
2019-04-11T11:28:05.424Z,7.73
2019-04-11T11:30:54.134Z,9.80
2019-04-11T11:33:26.623Z,9.50
2019-04-11T11:36:19.247Z,8.77
2019-04-11T11:39:02.961Z,9.00
2019-04-11T11:42:00.203Z,8.00
2019-04-11T11:44:39.154Z,10.93
2019-04-11T11:47:26.166Z,9.43
2019-04-11T11:50:00.560Z,8.77
2019-04-11T11:52:45.505Z,11.53
2019-04-11T11:55:19.030Z,9.50
2019-04-11T12:14:16.349Z,10.33
2019-04-11T12:30:31.216Z,8.37
2019-04-11T12:33:24.091Z,8.10
2019-04-11T13:50:45.678Z,9.30
2019-04-11T14:04:02.610Z,9.87
2019-04-11T14:35:59.868Z,9.73
2019-04-11T14:38:31.996Z,8.67
2019-04-11T14:41:22.757Z,9.07
2019-04-11T14:43:57.425Z,9.30
2019-04-11T14:47:00.890Z,9.33
2019-04-11T14:49:30.144Z,9.40
2019-04-11T15:05:24.050Z,8.87
2019-04-11T15:07:53.568Z,10.82
2019-04-11T15:10:45.744Z,9.53
2019-04-11T15:13:17.987Z,9.20
2019-04-11T15:16:11.019Z,9.43
2019-04-11T15:18:45.779Z,9.40
2019-04-11T15:21:29.374Z,9.63
2019-04-11T15:24:40.208Z,9.43
2019-04-11T15:28:07.984Z,10.50
2019-04-11T15:30:58.844Z,9.17
2019-04-11T15:37:10.856Z,8.93
2019-04-11T15:39:59.059Z,9.60
2019-04-11T15:42:40.587Z,9.03
2019-04-11T15:45:38.575Z,10.70
2019-04-11T15:49:21.099Z,8.93
2019-04-11T15:52:45.512Z,8.33
2019-04-11T15:59:29.112Z,8.37
2019-04-11T16:05:53.401Z,7.97
2019-04-11T16:26:11.918Z,8.53
2019-04-11T16:32:52.702Z,7.90
2019-04-11T16:35:33.042Z,8.17
2019-04-11T16:42:21.835Z,8.67
2019-04-11T16:45:43.865Z,8.53
2019-04-11T16:48:13.153Z,8.67
2019-04-11T16:50:42.427Z,8.80
2019-04-11T17:00:19.762Z,10.30
2019-04-11T17:03:28.006Z,9.20
2019-04-11T17:06:03.169Z,10.10
2019-04-11T17:09:18.969Z,8.73
2019-04-11T17:15:33.637Z,9.90
2019-04-11T17:18:03.371Z,9.50
2019-04-11T17:20:35.715Z,9.10
2019-04-11T17:23:03.640Z,10.00
2019-04-11T17:25:33.209Z,8.90
2019-04-11T17:28:02.542Z,8.70
2019-04-11T17:30:31.814Z,7.97
2019-04-11T17:33:01.039Z,8.50
2019-04-11T17:36:07.630Z,9.20
2019-04-11T18:09:13.531Z,10.30
2019-04-11T18:54:15.072Z,9.43
2019-04-11T19:04:32.158Z,8.67
2019-04-11T19:07:45.501Z,11.63
2019-04-11T19:11:16.469Z,9.40
2019-04-11T19:21:21.134Z,8.77
2019-04-11T19:31:50.305Z,8.90
2019-04-11T19:38:53.665Z,9.40
2019-04-11T19:49:59.264Z,9.77
2019-04-11T19:52:29.946Z,13.27
2019-04-11T19:55:09.130Z,9.67
2019-04-11T19:57:38.324Z,8.87
2019-04-11T20:00:09.243Z,8.00
2019-04-11T20:02:38.727Z,9.97
2019-04-11T20:05:08.003Z,9.37
2019-04-11T20:07:37.496Z,9.30
2019-04-11T20:10:07.213Z,8.13
2019-04-11T20:12:36.780Z,11.77
2019-04-11T20:15:08.686Z,9.20
2019-04-11T20:17:44.391Z,7.87
2019-04-11T20:20:08.309Z,9.20
2019-04-11T20:22:39.769Z,9.37
2019-04-11T20:25:08.849Z,11.27
2019-04-11T20:27:38.356Z,9.67
2019-04-11T20:30:08.690Z,7.77
2019-04-11T20:32:38.299Z,8.67
2019-04-11T20:35:10.126Z,15.60
2019-04-11T20:37:39.839Z,9.43
2019-04-11T20:40:09.757Z,10.17
2019-04-11T20:42:39.262Z,9.40
2019-04-11T20:45:09.018Z,10.20
2019-04-11T20:47:38.550Z,10.67
2019-04-11T20:50:09.390Z,10.97
2019-04-11T20:52:39.574Z,9.47
2019-04-11T20:55:15.293Z,8.93
2019-04-11T20:57:44.582Z,9.77
2019-04-11T21:00:14.148Z,10.87
2019-04-11T21:02:44.071Z,9.53
2019-04-11T21:05:13.785Z,9.33
2019-04-11T21:07:43.181Z,9.33
2019-04-11T21:10:12.932Z,9.10
2019-04-11T21:12:42.271Z,10.50
2019-04-11T21:15:11.654Z,10.07
2019-04-11T21:17:41.014Z,10.73
2019-04-11T21:20:11.009Z,8.93
2019-04-11T21:22:40.442Z,7.73
2019-04-11T21:25:09.790Z,8.33
2019-04-11T21:31:07.571Z,8.77
2019-04-11T21:33:37.311Z,10.87
2019-04-11T21:36:06.664Z,9.00
2019-04-11T21:38:36.009Z,9.77
2019-04-11T21:41:06.666Z,8.50
2019-04-11T21:43:36.848Z,8.27
2019-04-11T21:46:07.611Z,10.33
2019-04-11T21:48:37.376Z,8.67
2019-04-11T21:51:11.108Z,13.83
2019-04-11T21:53:37.615Z,9.03
2019-04-11T21:56:06.879Z,8.53
2019-04-11T21:58:36.209Z,8.93
2019-04-11T22:01:10.130Z,9.73
2019-04-11T22:03:40.140Z,11.13
2019-04-11T22:06:15.340Z,10.57
2019-04-11T22:08:44.674Z,9.57
2019-04-11T22:11:13.944Z,10.33
2019-04-11T22:13:44.505Z,9.77
2019-04-11T22:16:14.473Z,8.47
2019-04-11T22:18:44.325Z,9.90
2019-04-11T22:21:15.605Z,11.17
2019-04-11T22:23:48.836Z,10.23
2019-04-11T22:26:16.729Z,10.33
2019-04-11T22:28:46.254Z,8.67
2019-04-11T22:31:15.763Z,8.47
2019-04-11T22:33:48.946Z,8.07
2019-04-11T22:36:18.152Z,8.70
2019-04-11T22:38:47.405Z,11.00
2019-04-11T22:41:16.602Z,8.57
2019-04-11T22:43:46.163Z,9.23
2019-04-11T22:46:20.992Z,11.73
2019-04-11T22:48:47.059Z,9.60
2019-04-11T22:51:16.319Z,9.03
2019-04-11T22:53:45.901Z,13.13
2019-04-11T22:56:15.137Z,8.87
2019-04-11T22:58:44.556Z,10.60
2019-04-11T23:01:13.949Z,11.10
2019-04-11T23:03:51.300Z,10.20
2019-04-11T23:06:20.550Z,10.13
2019-04-11T23:08:49.804Z,10.80
2019-04-11T23:11:19.177Z,10.40
2019-04-11T23:13:48.453Z,10.83
2019-04-11T23:16:17.687Z,9.60
2019-04-11T23:18:46.900Z,12.53
2019-04-11T23:21:16.140Z,10.07
2019-04-11T23:23:45.345Z,8.97
2019-04-11T23:26:14.913Z,9.80
2019-04-11T23:28:46.741Z,11.13
2019-04-11T23:31:19.745Z,12.50
2019-04-11T23:33:46.512Z,10.53
2019-04-11T23:36:15.744Z,12.63
2019-04-11T23:38:45.237Z,10.60
2019-04-11T23:41:14.492Z,9.93
2019-04-11T23:43:43.729Z,9.63
2019-04-11T23:46:13.026Z,11.13
2019-04-11T23:48:42.229Z,8.97
2019-04-11T23:51:11.754Z,11.67
2019-04-11T23:53:41.262Z,10.80
2019-04-11T23:56:10.512Z,11.30
2019-04-11T23:58:39.733Z,11.57
